sensor_id;sensor_type;location;lat;lon;timestamp;temperature;humidity
1878;DHT22;939;51.426;6.972;2023-04-25T02:04:44;8.60;99.90
1878;DHT22;939;51.426;6.972;2023-04-25T02:07:12;8.60;99.90
1878;DHT22;939;51.426;6.972;2023-04-25T02:09:57;8.60;99.90
1878;DHT22;939;51.426;6.972;2023-04-25T02:12:31;8.60;99.90
1878;DHT22;939;51.426;6.972;2023-04-25T02:15:02;8.60;99.90
1878;DHT22;939;51.426;6.972;2023-04-25T02:17:47;8.70;99.90
1878;DHT22;939;51.426;6.972;2023-04-25T02:20:23;8.70;99.90
1878;DHT22;939;51.426;6.972;2023-04-25T02:22:53;8.70;99.90
1878;DHT22;939;51.426;6.972;2023-04-25T02:25:23;8.60;99.90
1878;DHT22;939;51.426;6.972;2023-04-25T02:27:50;8.60;99.90
1878;DHT22;939;51.426;6.972;2023-04-25T02:30:18;8.60;99.90
1878;DHT22;939;51.426;6.972;2023-04-25T02:32:48;8.50;99.90
1878;DHT22;939;51.426;6.972;2023-04-25T02:35:25;8.60;99.90
1878;DHT22;939;51.426;6.972;2023-04-25T02:37:52;8.60;99.90
1878;DHT22;939;51.426;6.972;2023-04-25T02:40:19;8.60;99.90
1878;DHT22;939;51.426;6.972;2023-04-25T02:42:46;8.60;99.90
1878;DHT22;939;51.426;6.972;2023-04-25T02:45:13;8.60;99.90
1878;DHT22;939;51.426;6.972;2023-04-25T02:47:40;8.60;99.90
1878;DHT22;939;51.426;6.972;2023-04-25T02:50:07;8.70;99.90
1878;DHT22;939;51.426;6.972;2023-04-25T02:52:41;8.60;99.90
1878;DHT22;939;51.426;6.972;2023-04-25T02:55:10;8.70;99.90
1878;DHT22;939;51.426;6.972;2023-04-25T02:57:40;8.70;99.90
1878;DHT22;939;51.426;6.972;2023-04-25T03:00:08;8.60;99.90
1878;DHT22;939;51.426;6.972;2023-04-25T03:02:37;8.70;99.90
1878;DHT22;939;51.426;6.972;2023-04-25T03:05:07;8.60;99.90
1878;DHT22;939;51.426;6.972;2023-04-25T03:07:34;8.60;99.90
1878;DHT22;939;51.426;6.972;2023-04-25T03:10:02;8.60;99.90
1878;DHT22;939;51.426;6.972;2023-04-25T03:12:30;8.70;99.90
1878;DHT22;939;51.426;6.972;2023-04-25T03:14:57;8.70;99.90
1878;DHT22;939;51.426;6.972;2023-04-25T03:17:24;8.70;99.90
1878;DHT22;939;51.426;6.972;2023-04-25T03:19:50;8.50;99.90
1878;DHT22;939;51.426;6.972;2023-04-25T03:22:17;8.50;99.90
1878;DHT22;939;51.426;6.972;2023-04-25T03:24:52;8.60;99.90
1878;DHT22;939;51.426;6.972;2023-04-25T03:27:20;8.60;99.90
1878;DHT22;939;51.426;6.972;2023-04-25T03:29:47;8.60;99.90
1878;DHT22;939;51.426;6.972;2023-04-25T03:32:14;8.70;99.90
1878;DHT22;939;51.426;6.972;2023-04-25T03:34:41;8.70;99.90
1878;DHT22;939;51.426;6.972;2023-04-25T03:37:08;8.80;99.90
1878;DHT22;939;51.426;6.972;2023-04-25T03:39:34;8.80;99.90
1878;DHT22;939;51.426;6.972;2023-04-25T03:42:01;8.80;99.90
1878;DHT22;939;51.426;6.972;2023-04-25T03:44:31;8.80;99.90
1878;DHT22;939;51.426;6.972;2023-04-25T03:46:58;8.70;99.90
1878;DHT22;939;51.426;6.972;2023-04-25T03:49:27;8.60;99.90
1878;DHT22;939;51.426;6.972;2023-04-25T03:51:55;8.70;99.90
1878;DHT22;939;51.426;6.972;2023-04-25T03:54:22;8.80;99.90
1878;DHT22;939;51.426;6.972;2023-04-25T03:56:49;8.80;99.90
1878;DHT22;939;51.426;6.972;2023-04-25T03:59:16;8.60;99.90
1878;DHT22;939;51.426;6.972;2023-04-25T04:01:44;8.50;99.90
1878;DHT22;939;51.426;6.972;2023-04-25T04:04:11;8.50;99.90
1878;DHT22;939;51.426;6.972;2023-04-25T04:06:40;8.70;99.90
1878;DHT22;939;51.426;6.972;2023-04-25T04:09:11;8.80;99.90
1878;DHT22;939;51.426;6.972;2023-04-25T04:11:38;8.70;99.90
1878;DHT22;939;51.426;6.972;2023-04-25T04:14:06;8.60;99.90
1878;DHT22;939;51.426;6.972;2023-04-25T04:16:33;8.70;99.90
1878;DHT22;939;51.426;6.972;2023-04-25T04:19:09;8.50;99.90
1878;DHT22;939;51.426;6.972;2023-04-25T04:21:36;8.50;99.90
1878;DHT22;939;51.426;6.972;2023-04-25T04:24:03;8.60;99.90
1878;DHT22;939;51.426;6.972;2023-04-25T04:26:39;8.60;99.90
1878;DHT22;939;51.426;6.972;2023-04-25T04:29:06;8.50;99.90
1878;DHT22;939;51.426;6.972;2023-04-25T04:31:34;8.50;99.90
1878;DHT22;939;51.426;6.972;2023-04-25T04:34:02;8.50;99.90
1878;DHT22;939;51.426;6.972;2023-04-25T04:36:36;8.60;99.90
1878;DHT22;939;51.426;6.972;2023-04-25T04:39:05;8.60;99.90
1878;DHT22;939;51.426;6.972;2023-04-25T04:41:32;8.60;99.90
1878;DHT22;939;51.426;6.972;2023-04-25T04:44:01;8.60;99.90
1878;DHT22;939;51.426;6.972;2023-04-25T04:46:28;8.50;99.90
1878;DHT22;939;51.426;6.972;2023-04-25T04:48:55;8.50;99.90
1878;DHT22;939;51.426;6.972;2023-04-25T04:51:24;8.50;99.90
1878;DHT22;939;51.426;6.972;2023-04-25T04:53:51;8.50;99.90
1878;DHT22;939;51.426;6.972;2023-04-25T04:56:17;8.30;99.90
1878;DHT22;939;51.426;6.972;2023-04-25T04:58:46;8.30;99.90
1878;DHT22;939;51.426;6.972;2023-04-25T05:01:14;8.30;99.90
1878;DHT22;939;51.426;6.972;2023-04-25T05:03:41;8.40;99.90
1878;DHT22;939;51.426;6.972;2023-04-25T05:06:08;8.50;99.90
1878;DHT22;939;51.426;6.972;2023-04-25T05:08:36;8.50;99.90
1878;DHT22;939;51.426;6.972;2023-04-25T05:11:08;8.50;99.90
1878;DHT22;939;51.426;6.972;2023-04-25T05:13:47;8.50;99.90
1878;DHT22;939;51.426;6.972;2023-04-25T05:16:14;8.50;99.90
1878;DHT22;939;51.426;6.972;2023-04-25T05:18:45;8.50;99.90
1878;DHT22;939;51.426;6.972;2023-04-25T05:21:14;8.50;99.90
1878;DHT22;939;51.426;6.972;2023-04-25T05:23:43;8.40;99.90
1878;DHT22;939;51.426;6.972;2023-04-25T05:26:12;8.40;99.90
1878;DHT22;939;51.426;6.972;2023-04-25T05:28:40;8.40;99.90
1878;DHT22;939;51.426;6.972;2023-04-25T05:31:10;8.40;99.90
1878;DHT22;939;51.426;6.972;2023-04-25T05:33:40;8.40;99.90
1878;DHT22;939;51.426;6.972;2023-04-25T05:36:18;8.40;99.90
1878;DHT22;939;51.426;6.972;2023-04-25T05:46:03;8.40;99.90
1878;DHT22;939;51.426;6.972;2023-04-25T05:48:32;8.50;99.90
1878;DHT22;939;51.426;6.972;2023-04-25T05:51:41;8.40;99.90
1878;DHT22;939;51.426;6.972;2023-04-25T05:54:09;8.40;99.90
1878;DHT22;939;51.426;6.972;2023-04-25T05:56:37;8.50;99.90
1878;DHT22;939;51.426;6.972;2023-04-25T05:59:04;8.50;99.90
1878;DHT22;939;51.426;6.972;2023-04-25T06:01:48;8.50;99.90
1878;DHT22;939;51.426;6.972;2023-04-25T06:04:17;8.40;99.90
1878;DHT22;939;51.426;6.972;2023-04-25T06:06:44;8.50;99.90
1878;DHT22;939;51.426;6.972;2023-04-25T06:09:13;8.60;99.90
1878;DHT22;939;51.426;6.972;2023-04-25T06:11:40;8.50;99.90
1878;DHT22;939;51.426;6.972;2023-04-25T06:14:07;8.20;99.90
1878;DHT22;939;51.426;6.972;2023-04-25T06:16:38;8.50;99.90
1878;DHT22;939;51.426;6.972;2023-04-25T06:19:08;8.50;99.90
1878;DHT22;939;51.426;6.972;2023-04-25T06:21:38;8.50;99.90
1878;DHT22;939;51.426;6.972;2023-04-25T06:24:07;8.50;99.90
1878;DHT22;939;51.426;6.972;2023-04-25T06:26:34;8.60;99.90
1878;DHT22;939;51.426;6.972;2023-04-25T06:29:01;8.60;99.90
1878;DHT22;939;51.426;6.972;2023-04-25T06:31:33;8.70;99.90
1878;DHT22;939;51.426;6.972;2023-04-25T06:34:02;8.60;99.90
1878;DHT22;939;51.426;6.972;2023-04-25T06:36:29;8.50;99.90
1878;DHT22;939;51.426;6.972;2023-04-25T06:38:56;8.40;99.90
1878;DHT22;939;51.426;6.972;2023-04-25T06:41:23;8.50;99.90
1878;DHT22;939;51.426;6.972;2023-04-25T06:43:50;8.70;99.90
1878;DHT22;939;51.426;6.972;2023-04-25T06:46:16;8.70;99.90
1878;DHT22;939;51.426;6.972;2023-04-25T06:48:43;8.80;99.90
1878;DHT22;939;51.426;6.972;2023-04-25T06:51:13;8.80;99.90
1878;DHT22;939;51.426;6.972;2023-04-25T06:53:42;8.90;99.90
1878;DHT22;939;51.426;6.972;2023-04-25T06:56:11;8.80;99.90
1878;DHT22;939;51.426;6.972;2023-04-25T06:58:38;8.80;99.90
1878;DHT22;939;51.426;6.972;2023-04-25T07:01:06;8.90;99.90
1878;DHT22;939;51.426;6.972;2023-04-25T07:03:32;9.10;99.90
1878;DHT22;939;51.426;6.972;2023-04-25T07:06:00;9.20;99.90
1878;DHT22;939;51.426;6.972;2023-04-25T07:08:29;9.30;99.90
1878;DHT22;939;51.426;6.972;2023-04-25T07:10:56;9.20;99.90
1878;DHT22;939;51.426;6.972;2023-04-25T07:13:23;9.10;99.90
1878;DHT22;939;51.426;6.972;2023-04-25T07:15:50;9.20;99.90
1878;DHT22;939;51.426;6.972;2023-04-25T07:18:20;9.10;99.90
1878;DHT22;939;51.426;6.972;2023-04-25T07:20:49;9.20;99.90
1878;DHT22;939;51.426;6.972;2023-04-25T07:23:16;9.30;99.90
1878;DHT22;939;51.426;6.972;2023-04-25T07:25:47;9.30;99.90
1878;DHT22;939;51.426;6.972;2023-04-25T07:28:14;9.50;99.90
1878;DHT22;939;51.426;6.972;2023-04-25T07:30:44;9.60;99.90
1878;DHT22;939;51.426;6.972;2023-04-25T07:33:18;9.60;99.90
1878;DHT22;939;51.426;6.972;2023-04-25T07:35:46;9.70;99.90
